Kingman, Kansas
Current Conditions -  °F | °C
As of 3:34 AM on Thursday 18 Dec 2014 (Local Time) from KHUT Reporting Station
Light Snow Light Snow  
Wind Chill: 30°   Ceiling: 900
Heat Index: 30°   Visibility: 2mi
Dew Point: 27°   Wind: 3mph
Humidity: 88%   Direction: 30°NNE
Pressure: 30.14"   Gusts: NA
Location:  37.65°N, 98.11°W
Report Text: KHUT 180934Z AUTO 03003KT 2SM -SN BR OVC009 M01/M03 A3014 RMK AO2 P0000 T10111028
Loading
Personal Weather Stations






























Interactive Weather Map New forecast layout! Learn more

10-Day Weather Forecast

Advertisements
Track Severe Weather on mobile